Main page
METAR-TAF:

METAR-TAF

Airports :

Beaumont Municipal Airport

Beaumont, Texas, United States

latitude: 30-04-13N, longitude: 094-12-54W, elevation: 33 ft

Current weather observation

The report was made 37 minutes ago, at 12:15 UTC
Wind 7 mph from the Southeast
Temperature 81°F
Humidity 79%
Pressure 29.85 in. Hg
Scattered clouds at a height of 2300 ft
Scattered clouds at a height of 2800 ft

METAR: KBMT 171215Z AUTO 14006KT SCT023 SCT028 27/23 A2985 RMK AO2 LTG DSNT E T02650230 PWINO

Time: 06:52 (12:52 UTC)


TAF: missing

Weather observations and forecasts of more than 4000 airports (METAR and TAF reports).

The available stations are represented by yellow and red dots on the map.

Hover mouse over dot to see the name of the station.

Then click to see weather observations and forecasts.

To change the map : click on the green buttons with a black cross to zoom in, on the green button with a dash to zoom out, or on the green arrows for adjacent maps.


METAR-TAF: